sensor_id;sensor_type;location;lat;lon;timestamp;temperature;humidity
10316;DHT22;5203;48.976;8.306;2024-03-02T00:00:02;3.60;99.90
10316;DHT22;5203;48.976;8.306;2024-03-02T00:02:46;3.60;99.90
10316;DHT22;5203;48.976;8.306;2024-03-02T00:05:13;3.70;99.90
10316;DHT22;5203;48.976;8.306;2024-03-02T00:07:44;3.70;99.90
10316;DHT22;5203;48.976;8.306;2024-03-02T00:10:11;3.70;99.90
10316;DHT22;5203;48.976;8.306;2024-03-02T00:12:38;3.70;99.90
10316;DHT22;5203;48.976;8.306;2024-03-02T00:17:54;3.60;99.90
10316;DHT22;5203;48.976;8.306;2024-03-02T00:20:22;3.60;99.90
10316;DHT22;5203;48.976;8.306;2024-03-02T00:22:49;3.60;99.90
10316;DHT22;5203;48.976;8.306;2024-03-02T00:25:16;3.50;99.90
10316;DHT22;5203;48.976;8.306;2024-03-02T00:27:42;3.40;99.90
10316;DHT22;5203;48.976;8.306;2024-03-02T00:33:19;3.40;99.90
10316;DHT22;5203;48.976;8.306;2024-03-02T00:35:46;3.40;99.90
10316;DHT22;5203;48.976;8.306;2024-03-02T00:38:13;3.30;99.90
10316;DHT22;5203;48.976;8.306;2024-03-02T00:40:44;3.40;99.90
10316;DHT22;5203;48.976;8.306;2024-03-02T00:43:42;3.30;99.90
10316;DHT22;5203;48.976;8.306;2024-03-02T00:46:15;3.20;99.90
10316;DHT22;5203;48.976;8.306;2024-03-02T00:48:50;3.20;99.90
10316;DHT22;5203;48.976;8.306;2024-03-02T00:51:16;3.10;99.90
10316;DHT22;5203;48.976;8.306;2024-03-02T00:53:42;3.00;99.90
10316;DHT22;5203;48.976;8.306;2024-03-02T00:56:11;2.90;99.90
10316;DHT22;5203;48.976;8.306;2024-03-02T00:58:38;2.80;99.90
10316;DHT22;5203;48.976;8.306;2024-03-02T01:01:04;2.70;99.90
10316;DHT22;5203;48.976;8.306;2024-03-02T01:03:31;2.80;99.90
10316;DHT22;5203;48.976;8.306;2024-03-02T01:05:58;2.80;99.90
10316;DHT22;5203;48.976;8.306;2024-03-02T01:08:24;2.90;99.90
10316;DHT22;5203;48.976;8.306;2024-03-02T01:10:50;2.90;99.90
10316;DHT22;5203;48.976;8.306;2024-03-02T01:13:16;2.90;99.90
10316;DHT22;5203;48.976;8.306;2024-03-02T01:15:42;3.00;99.90
10316;DHT22;5203;48.976;8.306;2024-03-02T01:18:08;3.00;99.90
10316;DHT22;5203;48.976;8.306;2024-03-02T01:20:34;3.10;99.90
10316;DHT22;5203;48.976;8.306;2024-03-02T01:22:59;3.10;99.90
10316;DHT22;5203;48.976;8.306;2024-03-02T01:25:25;3.10;99.90
10316;DHT22;5203;48.976;8.306;2024-03-02T01:27:51;3.10;99.90
10316;DHT22;5203;48.976;8.306;2024-03-02T01:30:17;3.00;99.90
10316;DHT22;5203;48.976;8.306;2024-03-02T01:32:46;3.10;99.90
10316;DHT22;5203;48.976;8.306;2024-03-02T01:35:12;3.10;99.90
10316;DHT22;5203;48.976;8.306;2024-03-02T01:37:38;3.10;99.90
10316;DHT22;5203;48.976;8.306;2024-03-02T01:40:04;3.00;99.90
10316;DHT22;5203;48.976;8.306;2024-03-02T01:42:36;3.00;99.90
10316;DHT22;5203;48.976;8.306;2024-03-02T01:45:02;2.90;99.90
10316;DHT22;5203;48.976;8.306;2024-03-02T01:47:29;2.90;99.90
10316;DHT22;5203;48.976;8.306;2024-03-02T01:49:55;2.90;99.90
10316;DHT22;5203;48.976;8.306;2024-03-02T01:52:20;3.00;99.90
10316;DHT22;5203;48.976;8.306;2024-03-02T01:54:46;3.00;99.90
10316;DHT22;5203;48.976;8.306;2024-03-02T01:57:12;3.00;99.90
10316;DHT22;5203;48.976;8.306;2024-03-02T01:59:38;3.00;99.90
10316;DHT22;5203;48.976;8.306;2024-03-02T02:02:04;3.00;99.90
10316;DHT22;5203;48.976;8.306;2024-03-02T02:04:30;3.00;99.90
10316;DHT22;5203;48.976;8.306;2024-03-02T02:06:56;2.90;99.90
10316;DHT22;5203;48.976;8.306;2024-03-02T02:09:22;3.00;99.90
10316;DHT22;5203;48.976;8.306;2024-03-02T02:11:48;2.90;99.90
10316;DHT22;5203;48.976;8.306;2024-03-02T02:14:15;2.90;99.90
10316;DHT22;5203;48.976;8.306;2024-03-02T02:16:41;3.00;99.90
10316;DHT22;5203;48.976;8.306;2024-03-02T02:19:07;2.80;99.90
10316;DHT22;5203;48.976;8.306;2024-03-02T02:21:33;2.80;99.90
10316;DHT22;5203;48.976;8.306;2024-03-02T02:23:59;2.70;99.90
10316;DHT22;5203;48.976;8.306;2024-03-02T02:26:26;2.70;99.90
10316;DHT22;5203;48.976;8.306;2024-03-02T02:28:52;2.80;99.90
10316;DHT22;5203;48.976;8.306;2024-03-02T02:31:18;2.80;99.90
10316;DHT22;5203;48.976;8.306;2024-03-02T02:33:44;2.70;99.90
10316;DHT22;5203;48.976;8.306;2024-03-02T02:36:09;2.70;99.90
10316;DHT22;5203;48.976;8.306;2024-03-02T02:38:41;2.50;99.90
10316;DHT22;5203;48.976;8.306;2024-03-02T02:41:08;2.50;99.90
10316;DHT22;5203;48.976;8.306;2024-03-02T02:43:34;2.50;99.90
10316;DHT22;5203;48.976;8.306;2024-03-02T02:46:00;2.40;99.90
10316;DHT22;5203;48.976;8.306;2024-03-02T02:48:25;2.50;99.90
10316;DHT22;5203;48.976;8.306;2024-03-02T02:50:51;2.50;99.90
10316;DHT22;5203;48.976;8.306;2024-03-02T02:53:20;2.40;99.90
10316;DHT22;5203;48.976;8.306;2024-03-02T02:55:46;2.40;99.90
10316;DHT22;5203;48.976;8.306;2024-03-02T02:58:12;2.30;99.90
10316;DHT22;5203;48.976;8.306;2024-03-02T03:00:38;2.30;99.90
10316;DHT22;5203;48.976;8.306;2024-03-02T03:03:05;2.30;99.90
10316;DHT22;5203;48.976;8.306;2024-03-02T03:05:31;2.30;99.90
10316;DHT22;5203;48.976;8.306;2024-03-02T03:07:57;2.30;99.90
10316;DHT22;5203;48.976;8.306;2024-03-02T03:10:23;2.30;99.90
10316;DHT22;5203;48.976;8.306;2024-03-02T03:12:51;2.20;99.90
10316;DHT22;5203;48.976;8.306;2024-03-02T03:15:17;2.20;99.90
10316;DHT22;5203;48.976;8.306;2024-03-02T03:17:43;2.20;99.90
10316;DHT22;5203;48.976;8.306;2024-03-02T03:20:09;2.20;99.90
10316;DHT22;5203;48.976;8.306;2024-03-02T03:22:36;2.20;99.90
10316;DHT22;5203;48.976;8.306;2024-03-02T03:25:01;2.10;99.90
10316;DHT22;5203;48.976;8.306;2024-03-02T03:27:29;2.00;99.90
10316;DHT22;5203;48.976;8.306;2024-03-02T03:29:55;2.10;99.90
10316;DHT22;5203;48.976;8.306;2024-03-02T03:32:20;2.10;99.90
10316;DHT22;5203;48.976;8.306;2024-03-02T03:34:47;2.10;99.90
10316;DHT22;5203;48.976;8.306;2024-03-02T03:37:14;2.10;99.90
10316;DHT22;5203;48.976;8.306;2024-03-02T03:39:40;2.10;99.90
10316;DHT22;5203;48.976;8.306;2024-03-02T03:42:05;1.90;99.90
10316;DHT22;5203;48.976;8.306;2024-03-02T03:44:32;1.90;99.90
10316;DHT22;5203;48.976;8.306;2024-03-02T03:46:57;1.80;99.90
10316;DHT22;5203;48.976;8.306;2024-03-02T03:49:24;1.80;99.90
10316;DHT22;5203;48.976;8.306;2024-03-02T03:51:51;1.80;99.90
10316;DHT22;5203;48.976;8.306;2024-03-02T03:54:17;1.80;99.90
10316;DHT22;5203;48.976;8.306;2024-03-02T03:56:42;1.80;99.90
10316;DHT22;5203;48.976;8.306;2024-03-02T03:59:08;1.80;99.90
10316;DHT22;5203;48.976;8.306;2024-03-02T04:01:34;1.90;99.90
10316;DHT22;5203;48.976;8.306;2024-03-02T04:04:00;1.80;99.90
10316;DHT22;5203;48.976;8.306;2024-03-02T04:06:29;1.70;99.90
10316;DHT22;5203;48.976;8.306;2024-03-02T04:08:54;1.60;99.90
10316;DHT22;5203;48.976;8.306;2024-03-02T04:11:20;1.60;99.90
10316;DHT22;5203;48.976;8.306;2024-03-02T04:13:46;1.60;99.90
10316;DHT22;5203;48.976;8.306;2024-03-02T04:16:12;1.60;99.90
10316;DHT22;5203;48.976;8.306;2024-03-02T04:18:38;1.50;99.90
10316;DHT22;5203;48.976;8.306;2024-03-02T04:21:05;1.50;99.90
10316;DHT22;5203;48.976;8.306;2024-03-02T04:23:31;1.40;99.90
10316;DHT22;5203;48.976;8.306;2024-03-02T04:25:56;1.30;99.90
10316;DHT22;5203;48.976;8.306;2024-03-02T04:28:22;1.30;99.90
10316;DHT22;5203;48.976;8.306;2024-03-02T04:30:48;1.30;99.90
10316;DHT22;5203;48.976;8.306;2024-03-02T04:33:14;1.40;99.90
10316;DHT22;5203;48.976;8.306;2024-03-02T04:35:40;1.30;99.90
10316;DHT22;5203;48.976;8.306;2024-03-02T04:38:05;1.30;99.90
10316;DHT22;5203;48.976;8.306;2024-03-02T04:40:31;1.30;99.90
10316;DHT22;5203;48.976;8.306;2024-03-02T04:42:57;1.30;99.90
10316;DHT22;5203;48.976;8.306;2024-03-02T04:45:24;1.30;99.90
10316;DHT22;5203;48.976;8.306;2024-03-02T04:47:50;1.30;99.90
10316;DHT22;5203;48.976;8.306;2024-03-02T04:50:16;1.30;99.90
10316;DHT22;5203;48.976;8.306;2024-03-02T04:52:42;1.30;99.90
10316;DHT22;5203;48.976;8.306;2024-03-02T04:55:08;1.30;99.90
10316;DHT22;5203;48.976;8.306;2024-03-02T04:57:45;1.40;99.90
10316;DHT22;5203;48.976;8.306;2024-03-02T05:00:12;1.30;99.90
10316;DHT22;5203;48.976;8.306;2024-03-02T05:02:38;1.30;99.90
10316;DHT22;5203;48.976;8.306;2024-03-02T05:05:04;1.30;99.90
10316;DHT22;5203;48.976;8.306;2024-03-02T05:07:30;1.30;99.90
10316;DHT22;5203;48.976;8.306;2024-03-02T05:09:55;1.40;99.90
10316;DHT22;5203;48.976;8.306;2024-03-02T05:12:21;1.40;99.90
10316;DHT22;5203;48.976;8.306;2024-03-02T05:15:05;1.40;99.90
10316;DHT22;5203;48.976;8.306;2024-03-02T05:17:32;1.50;99.90
10316;DHT22;5203;48.976;8.306;2024-03-02T05:19:58;1.50;99.90
10316;DHT22;5203;48.976;8.306;2024-03-02T05:22:24;1.50;99.90
10316;DHT22;5203;48.976;8.306;2024-03-02T05:24:50;1.50;99.90
10316;DHT22;5203;48.976;8.306;2024-03-02T05:27:16;1.60;99.90
10316;DHT22;5203;48.976;8.306;2024-03-02T05:29:42;1.50;99.90
10316;DHT22;5203;48.976;8.306;2024-03-02T05:32:07;1.50;99.90
10316;DHT22;5203;48.976;8.306;2024-03-02T05:34:33;1.50;99.90
10316;DHT22;5203;48.976;8.306;2024-03-02T05:37:01;1.50;99.90
10316;DHT22;5203;48.976;8.306;2024-03-02T05:39:27;1.40;99.90
10316;DHT22;5203;48.976;8.306;2024-03-02T05:41:53;1.40;99.90
10316;DHT22;5203;48.976;8.306;2024-03-02T05:44:18;1.20;99.90
10316;DHT22;5203;48.976;8.306;2024-03-02T05:46:45;1.20;99.90
10316;DHT22;5203;48.976;8.306;2024-03-02T05:49:11;1.20;99.90
10316;DHT22;5203;48.976;8.306;2024-03-02T05:51:37;1.10;99.90
10316;DHT22;5203;48.976;8.306;2024-03-02T05:54:03;1.20;99.90
10316;DHT22;5203;48.976;8.306;2024-03-02T05:56:29;1.20;99.90
10316;DHT22;5203;48.976;8.306;2024-03-02T05:58:55;1.20;99.90
10316;DHT22;5203;48.976;8.306;2024-03-02T06:01:42;1.20;99.90
10316;DHT22;5203;48.976;8.306;2024-03-02T06:04:11;1.10;99.90
10316;DHT22;5203;48.976;8.306;2024-03-02T06:06:37;1.10;99.90
10316;DHT22;5203;48.976;8.306;2024-03-02T06:09:04;1.20;99.90
10316;DHT22;5203;48.976;8.306;2024-03-02T06:11:37;1.10;99.90
10316;DHT22;5203;48.976;8.306;2024-03-02T06:14:03;1.10;99.90
10316;DHT22;5203;48.976;8.306;2024-03-02T06:16:29;1.10;99.90
10316;DHT22;5203;48.976;8.306;2024-03-02T06:18:56;1.10;99.90
10316;DHT22;5203;48.976;8.306;2024-03-02T06:21:24;1.10;99.90
10316;DHT22;5203;48.976;8.306;2024-03-02T06:23:50;1.00;99.90
10316;DHT22;5203;48.976;8.306;2024-03-02T06:26:15;1.00;99.90
10316;DHT22;5203;48.976;8.306;2024-03-02T06:28:42;1.10;99.90
10316;DHT22;5203;48.976;8.306;2024-03-02T06:31:08;1.10;99.90
10316;DHT22;5203;48.976;8.306;2024-03-02T06:33:34;1.10;99.90
10316;DHT22;5203;48.976;8.306;2024-03-02T06:36:00;1.20;99.90
10316;DHT22;5203;48.976;8.306;2024-03-02T06:38:28;1.20;99.90
10316;DHT22;5203;48.976;8.306;2024-03-02T06:40:54;1.20;99.90
10316;DHT22;5203;48.976;8.306;2024-03-02T06:43:21;1.20;99.90
10316;DHT22;5203;48.976;8.306;2024-03-02T06:45:52;1.20;99.90
10316;DHT22;5203;48.976;8.306;2024-03-02T06:48:19;1.10;99.90
10316;DHT22;5203;48.976;8.306;2024-03-02T06:50:49;1.10;99.90
10316;DHT22;5203;48.976;8.306;2024-03-02T06:53:16;1.20;99.90
10316;DHT22;5203;48.976;8.306;2024-03-02T06:55:46;1.20;99.90
10316;DHT22;5203;48.976;8.306;2024-03-02T06:58:13;1.20;99.90
10316;DHT22;5203;48.976;8.306;2024-03-02T07:00:40;1.60;99.90
10316;DHT22;5203;48.976;8.306;2024-03-02T07:03:06;1.60;99.90
10316;DHT22;5203;48.976;8.306;2024-03-02T07:05:32;1.50;99.90
10316;DHT22;5203;48.976;8.306;2024-03-02T07:07:58;1.40;99.90
10316;DHT22;5203;48.976;8.306;2024-03-02T07:10:25;1.40;99.90
10316;DHT22;5203;48.976;8.306;2024-03-02T07:12:50;1.40;99.90
10316;DHT22;5203;48.976;8.306;2024-03-02T07:15:16;1.50;99.90
10316;DHT22;5203;48.976;8.306;2024-03-02T07:17:54;1.40;99.90
10316;DHT22;5203;48.976;8.306;2024-03-02T07:20:20;1.40;99.90
10316;DHT22;5203;48.976;8.306;2024-03-02T07:22:46;1.50;99.90
10316;DHT22;5203;48.976;8.306;2024-03-02T07:25:12;1.60;99.90
10316;DHT22;5203;48.976;8.306;2024-03-02T07:27:38;1.60;99.90
10316;DHT22;5203;48.976;8.306;2024-03-02T07:30:05;1.70;99.90
10316;DHT22;5203;48.976;8.306;2024-03-02T07:32:31;1.90;99.90
10316;DHT22;5203;48.976;8.306;2024-03-02T07:34:59;2.10;99.90
10316;DHT22;5203;48.976;8.306;2024-03-02T07:37:26;2.30;99.90
10316;DHT22;5203;48.976;8.306;2024-03-02T07:39:52;2.50;99.90
10316;DHT22;5203;48.976;8.306;2024-03-02T07:42:20;2.70;99.90
10316;DHT22;5203;48.976;8.306;2024-03-02T07:44:46;2.80;99.90
10316;DHT22;5203;48.976;8.306;2024-03-02T07:47:12;3.00;99.90
10316;DHT22;5203;48.976;8.306;2024-03-02T07:49:38;3.10;99.90
10316;DHT22;5203;48.976;8.306;2024-03-02T07:52:04;3.20;99.90
10316;DHT22;5203;48.976;8.306;2024-03-02T07:54:29;3.40;99.90
10316;DHT22;5203;48.976;8.306;2024-03-02T07:56:55;3.50;99.90
10316;DHT22;5203;48.976;8.306;2024-03-02T07:59:21;3.60;99.90
10316;DHT22;5203;48.976;8.306;2024-03-02T08:01:49;3.70;99.90
10316;DHT22;5203;48.976;8.306;2024-03-02T08:04:15;3.80;99.90
10316;DHT22;5203;48.976;8.306;2024-03-02T08:06:41;3.90;99.90
10316;DHT22;5203;48.976;8.306;2024-03-02T08:09:06;4.00;99.90
10316;DHT22;5203;48.976;8.306;2024-03-02T08:11:35;4.10;99.90
10316;DHT22;5203;48.976;8.306;2024-03-02T08:14:01;4.20;99.90
10316;DHT22;5203;48.976;8.306;2024-03-02T08:16:27;4.30;99.90
10316;DHT22;5203;48.976;8.306;2024-03-02T08:18:52;4.40;99.90
10316;DHT22;5203;48.976;8.306;2024-03-02T08:21:19;4.50;99.90
10316;DHT22;5203;48.976;8.306;2024-03-02T08:23:45;4.70;99.90
10316;DHT22;5203;48.976;8.306;2024-03-02T08:26:11;4.80;99.90
10316;DHT22;5203;48.976;8.306;2024-03-02T08:28:37;4.90;99.90
10316;DHT22;5203;48.976;8.306;2024-03-02T08:31:04;5.10;99.90
10316;DHT22;5203;48.976;8.306;2024-03-02T08:33:30;5.10;99.90
10316;DHT22;5203;48.976;8.306;2024-03-02T08:35:56;5.20;99.90
10316;DHT22;5203;48.976;8.306;2024-03-02T08:38:22;5.40;99.90
10316;DHT22;5203;48.976;8.306;2024-03-02T08:40:49;5.50;99.90
10316;DHT22;5203;48.976;8.306;2024-03-02T08:43:15;5.60;99.90
10316;DHT22;5203;48.976;8.306;2024-03-02T08:45:40;5.70;99.90
10316;DHT22;5203;48.976;8.306;2024-03-02T08:48:08;5.80;99.90
10316;DHT22;5203;48.976;8.306;2024-03-02T08:50:34;6.00;96.30
10316;DHT22;5203;48.976;8.306;2024-03-02T08:53:00;6.10;96.90
10316;DHT22;5203;48.976;8.306;2024-03-02T08:55:26;6.20;96.80
10316;DHT22;5203;48.976;8.306;2024-03-02T08:57:54;6.40;96.50
10316;DHT22;5203;48.976;8.306;2024-03-02T09:00:20;6.50;95.60
10316;DHT22;5203;48.976;8.306;2024-03-02T09:02:46;6.70;95.10
10316;DHT22;5203;48.976;8.306;2024-03-02T09:05:12;6.80;93.30
10316;DHT22;5203;48.976;8.306;2024-03-02T09:07:37;7.00;90.60
10316;DHT22;5203;48.976;8.306;2024-03-02T09:10:05;7.10;91.30
10316;DHT22;5203;48.976;8.306;2024-03-02T09:12:32;7.20;91.60
10316;DHT22;5203;48.976;8.306;2024-03-02T09:15:01;7.40;90.60
10316;DHT22;5203;48.976;8.306;2024-03-02T09:17:28;7.40;84.40
10316;DHT22;5203;48.976;8.306;2024-03-02T09:19:54;7.60;80.20
10316;DHT22;5203;48.976;8.306;2024-03-02T09:22:20;7.70;79.00
10316;DHT22;5203;48.976;8.306;2024-03-02T09:24:45;7.90;78.90
10316;DHT22;5203;48.976;8.306;2024-03-02T09:27:11;8.10;79.30
10316;DHT22;5203;48.976;8.306;2024-03-02T09:29:37;8.20;77.10
10316;DHT22;5203;48.976;8.306;2024-03-02T09:32:07;8.40;75.50
10316;DHT22;5203;48.976;8.306;2024-03-02T09:34:33;8.50;76.10
10316;DHT22;5203;48.976;8.306;2024-03-02T09:36:59;8.70;74.90
10316;DHT22;5203;48.976;8.306;2024-03-02T09:39:28;8.80;74.60
10316;DHT22;5203;48.976;8.306;2024-03-02T09:41:54;9.00;74.30
10316;DHT22;5203;48.976;8.306;2024-03-02T09:44:20;9.20;73.40
10316;DHT22;5203;48.976;8.306;2024-03-02T09:46:49;9.30;70.50
10316;DHT22;5203;48.976;8.306;2024-03-02T09:49:15;9.50;71.40
10316;DHT22;5203;48.976;8.306;2024-03-02T09:51:40;9.70;69.40
10316;DHT22;5203;48.976;8.306;2024-03-02T09:54:11;9.90;69.40
10316;DHT22;5203;48.976;8.306;2024-03-02T09:56:37;10.00;69.60
10316;DHT22;5203;48.976;8.306;2024-03-02T09:59:03;10.20;67.50
10316;DHT22;5203;48.976;8.306;2024-03-02T10:01:30;10.50;65.70
10316;DHT22;5203;48.976;8.306;2024-03-02T10:03:59;10.60;64.20
10316;DHT22;5203;48.976;8.306;2024-03-02T10:06:26;10.90;64.20
10316;DHT22;5203;48.976;8.306;2024-03-02T10:08:53;11.10;63.40
10316;DHT22;5203;48.976;8.306;2024-03-02T10:11:40;11.20;60.80
10316;DHT22;5203;48.976;8.306;2024-03-02T10:14:06;11.30;60.30
10316;DHT22;5203;48.976;8.306;2024-03-02T10:16:40;11.40;60.20
10316;DHT22;5203;48.976;8.306;2024-03-02T10:19:20;11.60;59.70
10316;DHT22;5203;48.976;8.306;2024-03-02T10:21:50;11.80;60.60
10316;DHT22;5203;48.976;8.306;2024-03-02T10:24:17;12.00;60.50
10316;DHT22;5203;48.976;8.306;2024-03-02T10:26:43;12.10;58.00
10316;DHT22;5203;48.976;8.306;2024-03-02T10:29:10;12.10;58.80
10316;DHT22;5203;48.976;8.306;2024-03-02T10:31:40;12.30;58.40
10316;DHT22;5203;48.976;8.306;2024-03-02T10:37:40;12.60;55.80
10316;DHT22;5203;48.976;8.306;2024-03-02T10:40:11;13.00;54.60
10316;DHT22;5203;48.976;8.306;2024-03-02T10:43:01;13.10;53.80
10316;DHT22;5203;48.976;8.306;2024-03-02T10:45:31;13.30;53.90
10316;DHT22;5203;48.976;8.306;2024-03-02T10:48:01;13.40;52.60
10316;DHT22;5203;48.976;8.306;2024-03-02T10:50:33;13.50;51.90
10316;DHT22;5203;48.976;8.306;2024-03-02T10:53:11;13.70;52.50
10316;DHT22;5203;48.976;8.306;2024-03-02T10:55:45;14.00;52.20
10316;DHT22;5203;48.976;8.306;2024-03-02T10:58:14;14.20;49.70
10316;DHT22;5203;48.976;8.306;2024-03-02T11:00:46;14.30;50.20
10316;DHT22;5203;48.976;8.306;2024-03-02T11:03:45;14.70;49.40
10316;DHT22;5203;48.976;8.306;2024-03-02T11:06:26;14.90;47.40
10316;DHT22;5203;48.976;8.306;2024-03-02T11:09:00;14.90;45.00
10316;DHT22;5203;48.976;8.306;2024-03-02T11:11:32;14.60;45.10
10316;DHT22;5203;48.976;8.306;2024-03-02T11:14:01;14.80;46.30
10316;DHT22;5203;48.976;8.306;2024-03-02T11:16:37;15.10;46.20
10316;DHT22;5203;48.976;8.306;2024-03-02T11:19:10;15.30;44.70
10316;DHT22;5203;48.976;8.306;2024-03-02T11:21:36;15.30;44.30
10316;DHT22;5203;48.976;8.306;2024-03-02T11:26:55;15.50;44.20
10316;DHT22;5203;48.976;8.306;2024-03-02T11:32:16;15.90;42.40
10316;DHT22;5203;48.976;8.306;2024-03-02T11:34:46;16.20;40.80
10316;DHT22;5203;48.976;8.306;2024-03-02T11:37:36;16.50;41.50
10316;DHT22;5203;48.976;8.306;2024-03-02T11:43:29;16.40;40.40
10316;DHT22;5203;48.976;8.306;2024-03-02T11:56:12;16.50;40.80
10316;DHT22;5203;48.976;8.306;2024-03-02T11:58:56;16.50;40.70
10316;DHT22;5203;48.976;8.306;2024-03-02T12:02:15;17.10;39.40
10316;DHT22;5203;48.976;8.306;2024-03-02T12:04:49;17.50;38.70
10316;DHT22;5203;48.976;8.306;2024-03-02T12:07:40;17.50;39.00
10316;DHT22;5203;48.976;8.306;2024-03-02T12:10:37;17.90;37.10
10316;DHT22;5203;48.976;8.306;2024-03-02T12:16:48;18.20;35.20
10316;DHT22;5203;48.976;8.306;2024-03-02T12:19:14;18.40;35.70
10316;DHT22;5203;48.976;8.306;2024-03-02T12:22:24;18.70;35.50
10316;DHT22;5203;48.976;8.306;2024-03-02T12:25:12;18.80;35.50
10316;DHT22;5203;48.976;8.306;2024-03-02T12:41:14;18.80;35.30
10316;DHT22;5203;48.976;8.306;2024-03-02T12:43:40;18.60;35.10
10316;DHT22;5203;48.976;8.306;2024-03-02T12:46:06;18.70;34.80
10316;DHT22;5203;48.976;8.306;2024-03-02T12:48:32;19.10;34.60
10316;DHT22;5203;48.976;8.306;2024-03-02T12:50:58;19.20;34.70
10316;DHT22;5203;48.976;8.306;2024-03-02T12:53:24;19.10;34.80
10316;DHT22;5203;48.976;8.306;2024-03-02T12:55:50;19.10;34.50
10316;DHT22;5203;48.976;8.306;2024-03-02T12:58:18;19.10;34.40
10316;DHT22;5203;48.976;8.306;2024-03-02T13:00:44;18.60;35.30
10316;DHT22;5203;48.976;8.306;2024-03-02T13:03:11;18.50;35.70
10316;DHT22;5203;48.976;8.306;2024-03-02T13:05:37;18.20;35.50
10316;DHT22;5203;48.976;8.306;2024-03-02T13:08:08;18.10;37.00
10316;DHT22;5203;48.976;8.306;2024-03-02T13:10:34;18.20;36.80
10316;DHT22;5203;48.976;8.306;2024-03-02T13:13:00;18.30;36.70
10316;DHT22;5203;48.976;8.306;2024-03-02T13:15:27;18.80;35.40
10316;DHT22;5203;48.976;8.306;2024-03-02T13:17:53;19.10;35.60
10316;DHT22;5203;48.976;8.306;2024-03-02T13:20:19;19.30;35.00
10316;DHT22;5203;48.976;8.306;2024-03-02T13:22:48;19.80;34.00
10316;DHT22;5203;48.976;8.306;2024-03-02T13:25:17;19.80;33.40
10316;DHT22;5203;48.976;8.306;2024-03-02T13:27:43;19.80;34.40
10316;DHT22;5203;48.976;8.306;2024-03-02T13:30:12;19.90;33.50
10316;DHT22;5203;48.976;8.306;2024-03-02T13:32:38;19.80;33.70
10316;DHT22;5203;48.976;8.306;2024-03-02T13:35:04;19.30;34.60
10316;DHT22;5203;48.976;8.306;2024-03-02T13:37:29;18.90;35.20
10316;DHT22;5203;48.976;8.306;2024-03-02T13:39:55;18.80;34.90
10316;DHT22;5203;48.976;8.306;2024-03-02T13:42:21;18.90;35.90
10316;DHT22;5203;48.976;8.306;2024-03-02T13:44:54;18.90;36.50
10316;DHT22;5203;48.976;8.306;2024-03-02T13:47:20;18.90;36.80
10316;DHT22;5203;48.976;8.306;2024-03-02T13:49:46;18.90;36.60
10316;DHT22;5203;48.976;8.306;2024-03-02T13:52:14;18.50;37.00
10316;DHT22;5203;48.976;8.306;2024-03-02T13:54:41;18.00;37.10
10316;DHT22;5203;48.976;8.306;2024-03-02T13:57:07;18.00;37.70
10316;DHT22;5203;48.976;8.306;2024-03-02T13:59:34;17.80;37.70
10316;DHT22;5203;48.976;8.306;2024-03-02T14:02:02;18.00;37.80
10316;DHT22;5203;48.976;8.306;2024-03-02T14:04:32;18.10;38.10
10316;DHT22;5203;48.976;8.306;2024-03-02T14:06:59;18.40;37.10
10316;DHT22;5203;48.976;8.306;2024-03-02T14:09:25;18.00;37.90
10316;DHT22;5203;48.976;8.306;2024-03-02T14:11:51;17.90;37.90
10316;DHT22;5203;48.976;8.306;2024-03-02T14:14:17;17.60;38.50
10316;DHT22;5203;48.976;8.306;2024-03-02T14:16:43;17.50;39.10
10316;DHT22;5203;48.976;8.306;2024-03-02T14:19:10;17.30;39.40
10316;DHT22;5203;48.976;8.306;2024-03-02T14:21:37;17.40;39.70
10316;DHT22;5203;48.976;8.306;2024-03-02T14:24:03;17.10;40.50
10316;DHT22;5203;48.976;8.306;2024-03-02T14:26:29;16.90;40.50
10316;DHT22;5203;48.976;8.306;2024-03-02T14:28:55;17.00;40.50
10316;DHT22;5203;48.976;8.306;2024-03-02T14:31:23;16.90;41.30
10316;DHT22;5203;48.976;8.306;2024-03-02T14:33:48;17.00;41.30
10316;DHT22;5203;48.976;8.306;2024-03-02T14:36:14;17.00;40.80
10316;DHT22;5203;48.976;8.306;2024-03-02T14:38:40;16.90;41.30
10316;DHT22;5203;48.976;8.306;2024-03-02T14:41:06;16.90;41.70
10316;DHT22;5203;48.976;8.306;2024-03-02T14:43:31;16.90;41.70
10316;DHT22;5203;48.976;8.306;2024-03-02T14:45:57;16.70;41.50
10316;DHT22;5203;48.976;8.306;2024-03-02T14:48:24;16.60;42.30
10316;DHT22;5203;48.976;8.306;2024-03-02T14:50:50;16.60;42.50
10316;DHT22;5203;48.976;8.306;2024-03-02T14:53:16;16.40;42.80
10316;DHT22;5203;48.976;8.306;2024-03-02T14:55:42;16.30;43.70
10316;DHT22;5203;48.976;8.306;2024-03-02T14:58:07;16.30;43.80
10316;DHT22;5203;48.976;8.306;2024-03-02T15:00:33;16.30;44.30
10316;DHT22;5203;48.976;8.306;2024-03-02T15:02:59;16.20;44.90
10316;DHT22;5203;48.976;8.306;2024-03-02T15:05:25;16.20;43.90
10316;DHT22;5203;48.976;8.306;2024-03-02T15:07:52;16.20;44.40
10316;DHT22;5203;48.976;8.306;2024-03-02T15:10:20;16.10;45.70
10316;DHT22;5203;48.976;8.306;2024-03-02T15:12:45;16.10;44.70
10316;DHT22;5203;48.976;8.306;2024-03-02T15:15:11;16.00;45.00
10316;DHT22;5203;48.976;8.306;2024-03-02T15:17:37;15.90;47.20
10316;DHT22;5203;48.976;8.306;2024-03-02T15:20:03;15.90;46.40
10316;DHT22;5203;48.976;8.306;2024-03-02T15:22:32;15.80;45.80
10316;DHT22;5203;48.976;8.306;2024-03-02T15:25:06;15.80;46.80
10316;DHT22;5203;48.976;8.306;2024-03-02T15:27:34;15.70;46.90
10316;DHT22;5203;48.976;8.306;2024-03-02T15:30:00;15.70;47.00
10316;DHT22;5203;48.976;8.306;2024-03-02T15:32:26;15.60;47.50
10316;DHT22;5203;48.976;8.306;2024-03-02T15:34:53;15.60;48.10
10316;DHT22;5203;48.976;8.306;2024-03-02T15:37:24;15.50;47.70
10316;DHT22;5203;48.976;8.306;2024-03-02T15:39:50;15.50;47.80
10316;DHT22;5203;48.976;8.306;2024-03-02T15:42:15;15.40;48.10
10316;DHT22;5203;48.976;8.306;2024-03-02T15:44:41;15.40;49.40
10316;DHT22;5203;48.976;8.306;2024-03-02T15:47:07;15.30;49.20
10316;DHT22;5203;48.976;8.306;2024-03-02T15:49:33;15.20;48.60
10316;DHT22;5203;48.976;8.306;2024-03-02T15:51:58;15.20;49.90
10316;DHT22;5203;48.976;8.306;2024-03-02T15:54:26;15.10;50.10
10316;DHT22;5203;48.976;8.306;2024-03-02T15:56:52;15.00;50.60
10316;DHT22;5203;48.976;8.306;2024-03-02T15:59:18;15.00;50.40
10316;DHT22;5203;48.976;8.306;2024-03-02T16:01:44;14.90;51.50
10316;DHT22;5203;48.976;8.306;2024-03-02T16:04:10;14.80;51.70
10316;DHT22;5203;48.976;8.306;2024-03-02T16:06:35;14.80;52.50
10316;DHT22;5203;48.976;8.306;2024-03-02T16:09:01;14.80;52.60
10316;DHT22;5203;48.976;8.306;2024-03-02T16:11:29;14.70;54.20
10316;DHT22;5203;48.976;8.306;2024-03-02T16:13:54;14.60;55.20
10316;DHT22;5203;48.976;8.306;2024-03-02T16:16:20;14.40;56.60
10316;DHT22;5203;48.976;8.306;2024-03-02T16:18:46;14.40;58.90
10316;DHT22;5203;48.976;8.306;2024-03-02T16:21:11;14.30;59.70
10316;DHT22;5203;48.976;8.306;2024-03-02T16:23:38;14.20;59.90
10316;DHT22;5203;48.976;8.306;2024-03-02T16:26:03;14.20;59.20
10316;DHT22;5203;48.976;8.306;2024-03-02T16:28:29;14.10;58.70
10316;DHT22;5203;48.976;8.306;2024-03-02T16:30:54;14.10;58.90
10316;DHT22;5203;48.976;8.306;2024-03-02T16:33:20;14.00;59.30
10316;DHT22;5203;48.976;8.306;2024-03-02T16:35:46;14.00;58.60
10316;DHT22;5203;48.976;8.306;2024-03-02T16:38:14;13.90;59.50
10316;DHT22;5203;48.976;8.306;2024-03-02T16:40:40;13.80;59.60
10316;DHT22;5203;48.976;8.306;2024-03-02T16:43:06;13.90;59.80